Time;durP1;ratioP1;P1;durP2;ratioP2;P2;SDS_P1;SDS_P2;PMS_P1;PMS_P2;Temp;Humidity;BMP_temperature;BMP_pressure;BME280_temperature;BME280_humidity;BME280_pressure;Samples;Min_cycle;Max_cycle;Signal;HPM_P1;HPM_P2
2021/09/13 00:02:01;;;;;;;10.02;7.13;;;;;;;22.63;39.29;94874.19;5438512;22;20500;-70
2021/09/13 00:04:26;;;;;;;12.60;7.35;;;;;;;22.65;39.62;94888.03;5005622;28;20519;-70
2021/09/13 00:06:52;;;;;;;10.90;6.75;;;;;;;22.61;39.75;94882.13;5025434;28;20029;-70
2021/09/13 00:09:17;;;;;;;10.30;7.10;;;;;;;22.54;39.75;94872.53;5026271;28;20040;-69
2021/09/13 00:11:42;;;;;;;9.15;6.22;;;;;;;22.60;39.66;94891.53;5024408;28;20025;-70
2021/09/13 00:14:08;;;;;;;9.45;5.97;;;;;;;22.50;39.68;94882.22;5025825;28;20029;-70
2021/09/13 00:16:34;;;;;;;8.90;6.60;;;;;;;22.54;39.65;94893.56;5024454;28;20025;-70
2021/09/13 00:18:59;;;;;;;10.13;7.13;;;;;;;22.56;39.79;94885.63;5025778;28;20025;-70
2021/09/13 00:21:24;;;;;;;12.15;6.40;;;;;;;22.55;39.59;94878.72;5025719;28;20190;-70
2021/09/13 00:23:50;;;;;;;11.15;6.55;;;;;;;22.51;39.50;94883.69;5024651;28;20533;-70
2021/09/13 00:26:15;;;;;;;10.13;6.60;;;;;;;22.51;39.62;94889.88;5025408;28;20487;-70
2021/09/13 00:28:41;;;;;;;10.55;6.25;;;;;;;22.50;39.74;94898.56;5006956;28;20017;-70
2021/09/13 00:31:06;;;;;;;10.02;6.57;;;;;;;22.41;39.71;94875.09;5025172;28;20034;-70
2021/09/13 00:33:32;;;;;;;8.52;6.32;;;;;;;22.46;39.63;94881.75;5025074;28;20032;-70
2021/09/13 00:35:57;;;;;;;10.25;6.65;;;;;;;22.45;39.89;94888.41;5024937;28;20025;-70
2021/09/13 00:38:23;;;;;;;10.73;7.00;;;;;;;22.44;39.67;94889.69;5025381;28;20029;-70
2021/09/13 00:40:48;;;;;;;9.20;6.50;;;;;;;22.41;39.90;94888.72;5025145;28;20584;-70
2021/09/13 00:43:14;;;;;;;11.30;6.78;;;;;;;22.40;39.83;94888.47;5026327;28;20044;-70
2021/09/13 00:45:39;;;;;;;10.48;6.88;;;;;;;22.39;39.52;94893.19;5025367;28;20021;-70
2021/09/13 00:48:05;;;;;;;11.07;6.50;;;;;;;22.39;39.53;94893.19;5025214;28;20956;-70
2021/09/13 00:50:30;;;;;;;9.60;6.47;;;;;;;22.39;39.69;94887.75;5025459;28;20026;-70
2021/09/13 00:52:55;;;;;;;9.93;6.40;;;;;;;22.32;39.66;94899.16;5024708;28;20026;-70
2021/09/13 00:55:21;;;;;;;9.25;7.03;;;;;;;22.31;39.69;94889.53;5007959;28;20431;-70
2021/09/13 00:57:47;;;;;;;9.52;6.85;;;;;;;22.30;39.77;94890.78;5025172;28;20045;-70
2021/09/13 01:00:13;;;;;;;11.05;6.72;;;;;;;22.30;39.58;94890.78;5024239;28;20079;-70
2021/09/13 01:02:38;;;;;;;8.88;6.45;;;;;;;22.29;39.94;94892.00;5024993;28;20037;-70
2021/09/13 01:05:04;;;;;;;7.70;6.28;;;;;;;22.29;40.10;94889.28;5024901;28;20553;-70
2021/09/13 01:07:31;;;;;;;11.43;6.93;;;;;;;22.22;40.16;94889.81;5024028;28;20033;-70
2021/09/13 01:09:57;;;;;;;10.00;6.53;;;;;;;22.30;40.03;94890.78;5007619;28;20026;-70
2021/09/13 01:12:23;;;;;;;11.13;7.00;;;;;;;22.26;39.99;94890.31;5023728;28;20041;-70
2021/09/13 01:14:48;;;;;;;7.97;6.22;;;;;;;22.25;40.25;94883.38;5011785;28;20033;-70
2021/09/13 01:17:14;;;;;;;11.63;6.70;;;;;;;22.23;40.36;94891.31;5029672;28;20048;-70
2021/09/13 01:19:39;;;;;;;11.02;6.70;;;;;;;22.22;40.24;94889.81;5013902;28;20033;-70
2021/09/13 01:22:05;;;;;;;10.85;6.78;;;;;;;22.21;40.44;94901.97;5031394;28;20083;-70
2021/09/13 01:24:31;;;;;;;8.82;6.60;;;;;;;22.19;40.35;94893.53;5012535;28;20426;-70
2021/09/13 01:27:01;;;;;;;11.25;6.93;;;;;;;22.23;40.56;94901.47;5028539;28;20443;-70
2021/09/13 01:29:27;;;;;;;11.07;6.43;;;;;;;22.17;40.40;94915.06;5028644;28;20029;-70
2021/09/13 01:31:52;;;;;;;10.95;6.93;;;;;;;22.19;40.23;94907.13;5027059;28;20996;-70
2021/09/13 01:34:18;;;;;;;12.70;7.13;;;;;;;22.15;40.42;94901.22;5029412;28;20068;-70
2021/09/13 01:36:43;;;;;;;8.00;6.07;;;;;;;22.14;40.68;94905.19;5028576;28;20083;-70
2021/09/13 01:39:09;;;;;;;11.82;6.30;;;;;;;22.03;40.89;94899.06;5028125;28;20080;-70
2021/09/13 01:41:34;;;;;;;10.35;6.55;;;;;;;22.12;40.77;94902.25;5028178;28;20060;-69
2021/09/13 01:44:00;;;;;;;12.20;6.68;;;;;;;22.11;40.76;94906.19;5028805;28;20419;-71
2021/09/13 01:46:25;;;;;;;9.48;6.55;;;;;;;22.09;40.93;94903.25;5028116;28;20671;-71
2021/09/13 01:48:50;;;;;;;10.88;6.88;;;;;;;22.04;40.80;94906.72;5010529;28;20222;-70
2021/09/13 01:51:16;;;;;;;10.43;6.90;;;;;;;22.04;40.80;94905.97;5028014;28;20021;-70
2021/09/13 01:53:42;;;;;;;8.75;6.28;;;;;;;22.03;41.06;94910.69;5027797;28;20037;-70
2021/09/13 01:56:07;;;;;;;9.50;6.28;;;;;;;22.03;41.40;94916.13;5028089;28;20033;-70
2021/09/13 01:58:32;;;;;;;9.18;6.82;;;;;;;22.01;41.40;94918.59;5027811;28;20041;-70
2021/09/13 02:00:58;;;;;;;11.45;6.78;;;;;;;21.95;41.12;94915.16;5027944;28;20721;-70
2021/09/13 02:03:23;;;;;;;9.45;6.30;;;;;;;21.99;40.86;94915.66;5026490;28;20065;-70
2021/09/13 02:05:49;;;;;;;10.30;6.40;;;;;;;21.98;41.46;94913.44;5010264;28;20025;-71
2021/09/13 02:08:14;;;;;;;10.50;6.72;;;;;;;21.96;41.58;94910.47;5027778;28;20057;-70
2021/09/13 02:10:40;;;;;;;10.05;7.10;;;;;;;21.93;41.70;94906.78;5033679;28;20031;-70
2021/09/13 02:13:05;;;;;;;9.95;7.43;;;;;;;21.94;41.67;94913.69;5047180;28;20494;-71
2021/09/13 02:15:31;;;;;;;10.90;7.15;;;;;;;21.95;41.45;94915.16;5047261;28;20102;-70
2021/09/13 02:17:56;;;;;;;10.85;7.32;;;;;;;21.93;41.36;94917.66;5047721;28;20025;-71
2021/09/13 02:20:21;;;;;;;9.32;6.95;;;;;;;21.93;41.67;94916.91;5034544;28;20030;-70
2021/09/13 02:22:47;;;;;;;10.90;6.78;;;;;;;21.91;41.43;94913.22;5027602;28;20021;-71
2021/09/13 02:25:12;;;;;;;10.32;6.68;;;;;;;21.90;41.46;94911.72;5025435;28;20022;-70
2021/09/13 02:27:38;;;;;;;9.07;6.80;;;;;;;21.90;41.28;94911.72;5027086;28;20037;-70
2021/09/13 02:30:04;;;;;;;9.98;6.65;;;;;;;21.90;41.17;94917.16;5026892;28;20025;-71
2021/09/13 02:32:29;;;;;;;9.90;6.50;;;;;;;21.87;41.33;94918.16;5030230;28;20031;-70
2021/09/13 02:34:54;;;;;;;10.18;6.80;;;;;;;21.86;41.24;94916.72;5029164;28;20044;-70
2021/09/13 02:37:20;;;;;;;9.27;6.47;;;;;;;21.84;41.51;94919.16;5046655;28;20032;-70
2021/09/13 02:39:45;;;;;;;11.15;7.20;;;;;;;21.84;41.78;94919.16;5046287;28;20510;-70
2021/09/13 02:42:11;;;;;;;10.35;6.72;;;;;;;21.77;41.38;94914.28;5014515;28;20037;-71
2021/09/13 02:44:36;;;;;;;13.43;7.20;;;;;;;21.79;41.28;94922.66;5026995;28;20044;-70
2021/09/13 02:47:02;;;;;;;10.95;6.82;;;;;;;21.76;41.51;94912.78;5026009;28;20035;-71
2021/09/13 02:49:27;;;;;;;11.55;6.80;;;;;;;21.79;41.83;94922.66;5033530;28;20044;-70
2021/09/13 02:51:53;;;;;;;9.57;6.50;;;;;;;21.78;41.51;94921.16;5046604;28;20032;-70
2021/09/13 02:54:18;;;;;;;10.82;7.40;;;;;;;21.76;41.73;94918.97;5046632;28;20035;-70
2021/09/13 02:56:46;;;;;;;12.00;7.53;;;;;;;21.75;41.57;94916.75;5034011;28;20025;-71
2021/09/13 02:59:11;;;;;;;10.90;7.03;;;;;;;21.78;41.54;94926.59;5026491;28;20033;-70
2021/09/13 03:01:37;;;;;;;11.10;6.88;;;;;;;21.76;41.98;94923.66;5026018;28;20171;-70
2021/09/13 03:04:02;;;;;;;10.02;6.95;;;;;;;21.75;41.77;94927.59;5026104;28;20128;-71
2021/09/13 03:06:28;;;;;;;11.43;6.97;;;;;;;21.75;41.72;94930.31;5025635;28;20571;-70
2021/09/13 03:08:53;;;;;;;10.48;6.97;;;;;;;21.54;41.68;94902.03;5026538;28;20025;-70
2021/09/13 03:11:19;;;;;;;10.00;7.07;;;;;;;21.70;41.81;94931.09;5025676;28;20021;-70
2021/09/13 03:13:44;;;;;;;9.98;7.35;;;;;;;21.70;41.62;94931.84;5026205;28;20131;-70
2021/09/13 03:16:09;;;;;;;9.80;6.70;;;;;;;21.66;41.65;94931.38;5026210;28;20029;-70
2021/09/13 03:18:39;;;;;;;11.35;6.95;;;;;;;21.68;41.76;94939.03;5026429;28;20037;-70
2021/09/13 03:21:05;;;;;;;11.63;7.53;;;;;;;21.65;41.67;94934.59;5007198;28;20029;-70
2021/09/13 03:23:30;;;;;;;10.68;6.97;;;;;;;21.67;41.78;94937.53;5026136;28;20523;-71
2021/09/13 03:25:56;;;;;;;9.23;6.45;;;;;;;21.65;41.81;94929.16;5008109;28;20056;-71
2021/09/13 03:28:21;;;;;;;10.35;6.85;;;;;;;21.64;41.82;94938.53;5026164;28;20115;-71
2021/09/13 03:30:47;;;;;;;10.52;7.00;;;;;;;21.57;41.78;94922.75;5026265;28;20036;-70
2021/09/13 03:33:12;;;;;;;11.68;7.10;;;;;;;21.63;41.81;94931.63;5006249;28;20103;-71
2021/09/13 03:35:38;;;;;;;10.48;6.60;;;;;;;21.55;42.24;94931.41;5026147;28;20021;-70
2021/09/13 03:38:03;;;;;;;10.88;7.00;;;;;;;21.63;41.61;94942.50;5029923;28;20532;-70
2021/09/13 03:40:28;;;;;;;9.82;6.75;;;;;;;21.57;42.38;94945.22;5045989;28;20025;-70
2021/09/13 03:42:54;;;;;;;11.13;7.32;;;;;;;21.57;41.96;94939.06;5026614;28;20044;-70
2021/09/13 03:45:19;;;;;;;11.15;7.25;;;;;;;21.60;42.20;94938.06;5045834;28;20037;-71
2021/09/13 03:47:45;;;;;;;9.25;6.90;;;;;;;21.53;42.05;94938.56;5046359;28;20048;-70
2021/09/13 03:50:10;;;;;;;10.23;6.63;;;;;;;21.53;41.97;94954.88;5043225;28;20021;-70
2021/09/13 03:52:36;;;;;;;11.98;7.13;;;;;;;21.56;41.84;94948.44;5009680;28;20044;-70
2021/09/13 03:55:01;;;;;;;12.50;7.13;;;;;;;21.51;42.08;94957.34;5045098;28;20033;-70
2021/09/13 03:57:27;;;;;;;10.00;6.93;;;;;;;21.51;42.27;94958.09;5043382;28;20438;-71
2021/09/13 03:59:52;;;;;;;9.55;6.78;;;;;;;21.52;41.87;94964.25;5045531;28;20673;-71
2021/09/13 04:02:17;;;;;;;9.88;6.90;;;;;;;21.53;41.83;94955.59;5043283;28;20714;-70
2021/09/13 04:04:47;;;;;;;9.52;6.78;;;;;;;21.56;42.12;94964.75;5024040;28;20029;-70
2021/09/13 04:09:55;;;;;;;11.57;7.13;;;;;;;21.71;41.80;94954.31;5007341;28;20510;-71
2021/09/13 04:12:20;;;;;;;9.32;6.78;;;;;;;21.84;41.93;94962.66;5023697;28;20060;-71
2021/09/13 04:14:46;;;;;;;8.93;6.60;;;;;;;21.96;42.02;94965.59;5024794;28;20017;-70
2021/09/13 04:17:11;;;;;;;9.07;6.18;;;;;;;22.05;41.41;94968.03;5025074;28;20029;-70
2021/09/13 04:19:37;;;;;;;10.02;7.32;;;;;;;22.15;41.61;94966.50;5022486;28;20036;-71
2021/09/13 04:22:02;;;;;;;9.10;6.35;;;;;;;22.26;41.71;94961.03;5025236;28;20018;-70
2021/09/13 04:24:28;;;;;;;9.43;6.43;;;;;;;22.35;41.86;94965.44;5007943;28;20022;-70
2021/09/13 04:26:53;;;;;;;8.55;5.90;;;;;;;22.47;41.43;94960.16;5007973;28;20607;-71
2021/09/13 04:29:19;;;;;;;10.45;6.43;;;;;;;22.61;41.64;94969.22;5030276;28;20707;-74
2021/09/13 04:31:44;;;;;;;9.20;6.80;;;;;;;22.74;41.18;94977.56;5030624;28;20336;-78
2021/09/13 04:34:10;;;;;;;9.45;5.78;;;;;;;22.85;41.27;94966.56;5029439;28;20029;-73
2021/09/13 04:36:35;;;;;;;7.57;6.15;;;;;;;22.94;41.06;94970.50;5024811;28;20033;-76
2021/09/13 04:39:00;;;;;;;8.55;5.88;;;;;;;23.06;40.79;94977.34;5024948;28;20037;-78
2021/09/13 04:41:27;;;;;;;11.35;6.50;;;;;;;23.13;40.77;94971.31;5024869;28;20068;-74
2021/09/13 04:43:53;;;;;;;10.63;5.95;;;;;;;23.32;40.25;94974.88;5011046;28;20029;-78
2021/09/13 04:46:18;;;;;;;10.13;5.65;;;;;;;23.40;41.15;94979.25;5024070;28;20025;-75
2021/09/13 04:48:44;;;;;;;11.88;6.32;;;;;;;23.54;40.68;94980.09;5007843;28;20030;-80
2021/09/13 04:51:09;;;;;;;8.50;5.45;;;;;;;23.64;40.15;94982.00;5025435;28;20507;-76
2021/09/13 04:53:34;;;;;;;12.23;6.75;;;;;;;23.74;40.52;94979.69;5026526;28;20041;-74
2021/09/13 04:56:00;;;;;;;8.88;6.13;;;;;;;23.85;40.40;94985.75;4994987;28;20495;-74
2021/09/13 04:58:26;;;;;;;7.57;5.75;;;;;;;23.97;39.86;94987.81;5018489;28;20041;-75
2021/09/13 05:00:51;;;;;;;8.10;5.80;;;;;;;24.08;39.93;94993.16;5029097;28;20052;-75
2021/09/13 05:03:16;;;;;;;8.95;5.65;;;;;;;24.15;39.64;94998.03;5028967;28;20104;-75
2021/09/13 05:05:42;;;;;;;8.38;5.50;;;;;;;24.26;39.76;95003.38;5021410;28;20561;-78
2021/09/13 05:08:07;;;;;;;7.88;5.95;;;;;;;24.37;39.25;94989.59;5028835;28;20028;-76
2021/09/13 05:10:33;;;;;;;8.43;5.85;;;;;;;24.44;39.58;94991.75;5026131;28;20029;-73
2021/09/13 05:12:58;;;;;;;7.38;5.78;;;;;;;24.55;38.91;94997.06;5027827;28;20017;-72
2021/09/13 05:15:24;;;;;;;8.60;6.40;;;;;;;24.64;38.94;95000.16;5028378;28;20021;-73
2021/09/13 05:17:49;;;;;;;11.32;5.80;;;;;;;24.72;38.56;94997.56;5030239;28;20029;-72
2021/09/13 05:20:15;;;;;;;8.20;5.68;;;;;;;24.79;39.10;94999.69;5008955;28;20018;-73
2021/09/13 05:22:40;;;;;;;7.38;5.85;;;;;;;24.84;38.87;94997.63;5019539;28;20026;-72
2021/09/13 05:25:06;;;;;;;8.88;5.55;;;;;;;24.93;39.19;94999.97;5027728;28;20029;-73
2021/09/13 05:27:32;;;;;;;8.38;6.10;;;;;;;24.95;38.88;95002.91;5029073;28;20026;-80
2021/09/13 05:29:57;;;;;;;9.35;5.30;;;;;;;25.11;39.88;95007.44;5022199;28;20028;-80
2021/09/13 05:32:22;;;;;;;8.60;5.68;;;;;;;25.10;40.34;95003.22;5036511;28;20037;-74
2021/09/13 05:34:48;;;;;;;8.43;5.80;;;;;;;25.21;39.92;95005.03;5027021;28;20025;-71
2021/09/13 05:37:13;;;;;;;9.60;6.32;;;;;;;25.31;39.40;95001.38;5027714;28;20091;-76
2021/09/13 05:39:39;;;;;;;10.90;6.00;;;;;;;25.31;42.72;95006.13;5028234;28;20033;-74
2021/09/13 05:42:05;;;;;;;9.75;6.28;;;;;;;25.35;40.09;94996.34;5021234;28;20458;-74
2021/09/13 05:44:30;;;;;;;7.75;5.45;;;;;;;25.31;39.51;95001.38;5028893;28;20021;-72
2021/09/13 05:46:56;;;;;;;10.00;5.93;;;;;;;25.43;40.01;95002.69;5025059;28;20087;-71
2021/09/13 05:49:21;;;;;;;9.50;6.13;;;;;;;25.44;39.26;95004.13;5024815;28;20622;-74
2021/09/13 05:51:50;;;;;;;9.10;5.70;;;;;;;25.43;39.02;94991.75;5029343;28;20102;-78
2021/09/13 05:54:21;;;;;;;8.48;5.45;;;;;;;25.54;38.50;94997.00;5011047;28;20025;-76
2021/09/13 05:56:49;;;;;;;9.35;6.40;;;;;;;25.52;38.90;95000.28;5010799;28;20025;-74
2021/09/13 05:59:15;;;;;;;8.93;5.95;;;;;;;25.58;38.73;94991.97;5027419;28;20014;-75
2021/09/13 06:01:40;;;;;;;10.07;6.38;;;;;;;25.69;38.21;95008.22;5027764;28;20403;-76
2021/09/13 06:04:06;;;;;;;8.30;5.90;;;;;;;25.72;37.66;95012.63;5024107;28;20519;-73
2021/09/13 06:06:31;;;;;;;10.55;6.50;;;;;;;25.74;37.90;95015.56;5025358;28;20022;-74
2021/09/13 06:08:56;;;;;;;9.95;6.57;;;;;;;25.78;37.47;95005.78;5011447;28;20647;-73
2021/09/13 06:11:26;;;;;;;11.57;6.82;;;;;;;25.84;37.64;94998.97;5027948;28;20553;-69
2021/09/13 06:13:51;;;;;;;10.02;6.57;;;;;;;25.83;37.80;95002.97;5028677;28;20036;-76
2021/09/13 06:16:17;;;;;;;10.20;7.40;;;;;;;25.82;37.56;95012.44;5012811;28;20041;-76
2021/09/13 06:18:42;;;;;;;8.40;5.95;;;;;;;25.91;37.49;95003.81;5016696;28;20040;-75
2021/09/13 06:21:08;;;;;;;9.15;6.15;;;;;;;25.98;37.15;95003.19;5026781;28;20476;-75
2021/09/13 06:23:33;;;;;;;9.90;7.15;;;;;;;26.05;37.25;95007.28;5026946;28;20033;-75
2021/09/13 06:25:59;;;;;;;10.02;6.40;;;;;;;26.10;36.99;95004.44;5027540;28;20037;-73
2021/09/13 06:28:24;;;;;;;16.85;8.85;;;;;;;26.16;35.91;95007.81;5027461;28;20025;-79
2021/09/13 06:30:49;;;;;;;15.23;10.32;;;;;;;26.20;33.83;95002.72;5028698;28;20471;-76
2021/09/13 06:33:15;;;;;;;11.32;7.68;;;;;;;26.05;35.55;95008.03;5026995;28;20029;-77
2021/09/13 06:35:40;;;;;;;13.02;7.03;;;;;;;26.03;35.94;95016.00;5026637;28;20935;-73
2021/09/13 06:38:06;;;;;;;10.15;7.18;;;;;;;26.08;36.01;95012.44;5005024;28;20029;-73
2021/09/13 06:40:31;;;;;;;12.15;6.75;;;;;;;26.07;36.16;95010.97;5025014;28;20052;-72
2021/09/13 06:42:57;;;;;;;12.90;7.40;;;;;;;26.08;36.11;95017.91;5020520;28;20025;-73
2021/09/13 06:45:23;;;;;;;12.70;7.28;;;;;;;26.11;36.03;95011.38;5019715;28;20033;-76
2021/09/13 06:47:51;;;;;;;8.85;6.75;;;;;;;26.18;36.19;95015.50;5002641;28;20034;-71
2021/09/13 06:50:25;;;;;;;10.43;6.97;;;;;;;26.20;36.54;95013.69;5014910;28;20470;-71
2021/09/13 06:52:52;;;;;;;10.32;6.78;;;;;;;26.22;36.25;95010.41;4982398;28;20694;-72
2021/09/13 06:55:18;;;;;;;8.80;6.70;;;;;;;26.24;35.82;95018.84;5005853;28;20038;-71
2021/09/13 06:57:44;;;;;;;9.65;6.63;;;;;;;26.28;35.99;95009.09;5016951;28;20029;-72
2021/09/13 07:00:14;;;;;;;12.25;6.90;;;;;;;26.28;36.01;95014.56;5016109;28;20144;-72
2021/09/13 07:02:41;;;;;;;11.18;6.70;;;;;;;26.38;36.04;95018.31;4995514;28;20050;-74
2021/09/13 07:05:07;;;;;;;12.65;6.85;;;;;;;26.35;35.90;95024.88;4979443;28;20038;-72
2021/09/13 07:07:33;;;;;;;9.80;6.85;;;;;;;26.38;35.88;95018.31;4975203;28;20026;-72
2021/09/13 07:09:59;;;;;;;12.73;8.05;;;;;;;26.43;35.64;95031.19;4978324;28;20065;-71
2021/09/13 07:12:24;;;;;;;11.88;7.07;;;;;;;26.48;35.78;95027.59;4973897;28;20029;-72
2021/09/13 07:14:50;;;;;;;11.75;6.78;;;;;;;26.52;35.57;95028.03;4976660;28;20081;-74
2021/09/13 07:17:15;;;;;;;12.25;6.95;;;;;;;26.52;35.54;95028.03;4978491;28;20030;-74
2021/09/13 07:19:41;;;;;;;12.10;6.70;;;;;;;26.51;35.71;95032.00;4979038;28;20030;-73
2021/09/13 07:22:06;;;;;;;10.48;6.43;;;;;;;26.55;35.80;95022.22;4983563;28;20022;-73
2021/09/13 07:24:32;;;;;;;9.20;6.28;;;;;;;26.53;35.68;95029.47;4982650;28;20034;-73
2021/09/13 07:26:57;;;;;;;8.55;6.60;;;;;;;26.54;35.57;95036.44;4976667;28;20022;-73
2021/09/13 07:29:23;;;;;;;9.27;6.30;;;;;;;26.59;35.60;95021.88;4985531;28;20093;-73
2021/09/13 07:31:49;;;;;;;14.57;7.03;;;;;;;26.54;35.67;95025.47;4978627;28;20015;-73
2021/09/13 07:34:14;;;;;;;10.13;6.72;;;;;;;26.64;35.41;95012.81;4977551;28;20085;-72
2021/09/13 07:36:40;;;;;;;10.82;7.22;;;;;;;26.68;35.24;95024.19;4987150;28;20477;-74
2021/09/13 07:39:05;;;;;;;11.90;6.38;;;;;;;26.70;35.34;95016.19;4985497;28;20037;-74
2021/09/13 07:41:31;;;;;;;10.27;6.75;;;;;;;26.69;35.32;95025.66;4987346;28;20033;-74
2021/09/13 07:43:56;;;;;;;13.10;7.00;;;;;;;26.77;35.10;95022.47;4983215;28;20023;-73
2021/09/13 07:46:22;;;;;;;10.25;6.35;;;;;;;26.68;35.46;95018.69;4979052;28;20026;-73
2021/09/13 07:48:47;;;;;;;9.07;6.25;;;;;;;26.76;35.28;95021.00;4998886;28;20026;-73
2021/09/13 07:51:13;;;;;;;12.70;7.15;;;;;;;26.79;35.09;95019.94;4989790;28;20035;-75
2021/09/13 07:53:38;;;;;;;11.10;7.03;;;;;;;26.79;35.19;95019.94;4999111;28;20023;-73
2021/09/13 07:56:04;;;;;;;10.90;7.18;;;;;;;26.83;35.23;95025.84;5008691;28;20027;-72
2021/09/13 07:58:29;;;;;;;9.60;6.53;;;;;;;26.83;35.05;95023.09;4972484;28;20420;-72
2021/09/13 08:00:55;;;;;;;9.68;6.53;;;;;;;26.86;35.18;95029.50;4977165;28;20297;-73
2021/09/13 08:03:20;;;;;;;10.02;6.97;;;;;;;26.86;35.14;95029.50;4999758;28;20570;-72
2021/09/13 08:05:46;;;;;;;9.35;6.95;;;;;;;26.89;35.01;95033.94;5009714;28;20034;-73
2021/09/13 08:08:12;;;;;;;9.95;7.20;;;;;;;26.91;35.13;95026.66;5002644;28;20059;-73
2021/09/13 08:10:38;;;;;;;10.38;6.90;;;;;;;26.90;34.97;95019.72;5004940;28;20026;-72
2021/09/13 08:13:04;;;;;;;9.32;6.43;;;;;;;26.93;35.06;95023.41;5006919;28;20056;-72
2021/09/13 08:15:29;;;;;;;8.40;6.38;;;;;;;27.02;34.87;95020.94;5000593;28;20018;-72
2021/09/13 08:17:55;;;;;;;10.20;6.90;;;;;;;27.03;35.04;95022.41;4991849;28;20053;-73
2021/09/13 08:20:20;;;;;;;10.30;7.20;;;;;;;26.99;35.01;95027.47;5005548;28;20022;-74
2021/09/13 08:22:46;;;;;;;10.52;6.80;;;;;;;26.97;34.95;95013.56;5004917;28;20076;-74
2021/09/13 08:25:11;;;;;;;8.18;6.40;;;;;;;26.93;35.11;95013.16;5004642;28;20041;-73
2021/09/13 08:27:37;;;;;;;11.48;7.00;;;;;;;26.93;35.01;95013.16;5002401;28;20485;-72
2021/09/13 08:30:03;;;;;;;9.35;6.95;;;;;;;26.87;35.24;95015.25;5008372;28;20033;-73
2021/09/13 08:32:29;;;;;;;9.00;6.85;;;;;;;26.81;35.36;95017.38;5009434;28;20025;-74
2021/09/13 08:34:54;;;;;;;8.30;6.00;;;;;;;26.73;35.70;95017.84;5008698;28;20033;-73
2021/09/13 08:37:20;;;;;;;8.48;6.38;;;;;;;26.73;35.56;95009.63;5008532;28;20034;-72
2021/09/13 08:39:46;;;;;;;9.57;6.78;;;;;;;26.72;35.72;95024.59;5010738;28;20034;-72
2021/09/13 08:42:12;;;;;;;11.30;6.63;;;;;;;26.66;35.60;95015.75;5012562;28;20013;-72
2021/09/13 08:44:38;;;;;;;9.25;6.90;;;;;;;26.61;35.73;95011.16;5011189;28;20023;-72
2021/09/13 08:47:10;;;;;;;13.70;7.25;;;;;;;26.58;35.82;95014.94;4991836;28;20451;-72
2021/09/13 08:49:38;;;;;;;11.43;7.10;;;;;;;26.51;35.84;95010.81;5007812;28;20444;-72
2021/09/13 08:52:05;;;;;;;11.25;6.80;;;;;;;26.42;35.90;95003.06;5005979;28;20033;-72
2021/09/13 08:54:32;;;;;;;10.68;6.68;;;;;;;26.40;35.89;94999.38;5008809;28;20037;-72
2021/09/13 08:57:01;;;;;;;10.07;6.80;;;;;;;26.36;36.12;94998.97;5007622;28;20415;-72
2021/09/13 08:59:27;;;;;;;12.88;7.20;;;;;;;26.30;36.18;95001.06;5008209;28;20034;-72
2021/09/13 09:01:53;;;;;;;10.57;7.10;;;;;;;26.26;36.09;94995.16;5003864;28;20719;-74
2021/09/13 09:04:19;;;;;;;10.90;6.60;;;;;;;26.21;36.02;95003.50;5021270;28;20103;-72
2021/09/13 09:06:45;;;;;;;9.63;7.38;;;;;;;26.20;36.45;94989.03;5011008;28;20519;-72
2021/09/13 09:09:21;;;;;;;10.20;6.60;;;;;;;26.16;36.33;94991.38;5024824;28;20053;-72
2021/09/13 09:12:01;;;;;;;10.82;6.97;;;;;;;26.14;36.48;94988.41;5018834;28;20060;-73
2021/09/13 09:14:28;;;;;;;11.50;6.85;;;;;;;26.13;36.53;94992.44;5029548;28;20033;-71
2021/09/13 09:17:16;;;;;;;10.77;6.95;;;;;;;26.11;36.64;94984.00;5029074;28;20112;-72
2021/09/13 09:19:43;;;;;;;10.23;6.72;;;;;;;26.12;36.35;94980.00;5010824;28;20045;-73
2021/09/13 09:22:19;;;;;;;10.52;6.95;;;;;;;26.14;36.36;94980.22;5027880;28;20029;-73
2021/09/13 09:24:45;;;;;;;9.65;6.82;;;;;;;26.13;36.46;94970.53;5028493;28;20475;-73
2021/09/13 09:27:11;;;;;;;12.00;7.22;;;;;;;26.16;36.36;94969.47;4994810;28;20126;-73
2021/09/13 09:29:36;;;;;;;13.23;7.07;;;;;;;26.16;36.43;94968.72;5029077;28;20029;-73
2021/09/13 09:32:02;;;;;;;12.05;6.90;;;;;;;26.28;36.35;94976.25;5028132;28;20073;-73
2021/09/13 09:34:33;;;;;;;13.27;6.70;;;;;;;26.28;36.03;94970.75;5029936;28;20033;-73
2021/09/13 09:37:03;;;;;;;10.88;6.95;;;;;;;26.39;35.78;94965.03;5030140;28;20033;-73
2021/09/13 09:39:49;;;;;;;11.13;7.13;;;;;;;26.50;35.44;94970.28;5029134;28;20030;-72
2021/09/13 09:42:35;;;;;;;14.30;7.38;;;;;;;26.56;35.59;94968.16;5000629;28;20041;-73
2021/09/13 09:45:22;;;;;;;9.95;6.93;;;;;;;26.61;35.70;94976.25;5028265;28;20404;-74
2021/09/13 09:48:05;;;;;;;11.48;6.88;;;;;;;26.65;35.69;94964.97;5016567;28;20038;-73
2021/09/13 09:50:33;;;;;;;11.15;6.72;;;;;;;26.73;35.59;94960.31;5018330;28;20056;-72
2021/09/13 09:53:13;;;;;;;11.93;6.68;;;;;;;26.85;35.49;94952.03;5052865;28;20021;-71
2021/09/13 09:55:39;;;;;;;10.65;6.57;;;;;;;26.95;35.56;94955.81;5023849;28;20048;-72
2021/09/13 09:58:06;;;;;;;12.75;6.88;;;;;;;27.04;35.38;94960.09;5012305;28;20036;-72
2021/09/13 10:00:32;;;;;;;9.98;6.40;;;;;;;27.07;35.44;94957.03;5028136;28;20032;-72
2021/09/13 10:02:57;;;;;;;17.00;6.90;;;;;;;27.18;35.25;94956.03;5028173;28;20073;-72
2021/09/13 10:05:24;;;;;;;9.63;6.38;;;;;;;27.22;35.23;94946.19;5012027;28;20055;-72
2021/09/13 10:07:50;;;;;;;11.38;7.15;;;;;;;27.27;35.04;94956.28;5028473;28;20021;-71
2021/09/13 10:10:17;;;;;;;12.10;7.18;;;;;;;27.27;35.04;94948.06;5028180;28;20578;-74
2021/09/13 10:12:42;;;;;;;10.32;6.63;;;;;;;27.35;35.35;94943.34;5009194;28;20183;-76
2021/09/13 10:15:08;;;;;;;10.43;6.20;;;;;;;27.47;34.86;94939.06;5019392;28;20044;-81
2021/09/13 10:17:34;;;;;;;11.98;6.90;;;;;;;27.57;35.14;94948.31;5017145;28;20055;-81
2021/09/13 10:20:02;;;;;;;10.13;6.53;;;;;;;27.63;35.11;94940.69;5029207;28;20476;-80
2021/09/13 10:22:40;;;;;;;8.75;6.07;;;;;;;27.63;34.70;94940.69;5033332;28;20029;-82
2021/09/13 10:25:06;;;;;;;10.88;7.05;;;;;;;27.69;34.38;94938.53;5020846;28;20030;-79
2021/09/13 10:27:39;;;;;;;10.05;6.22;;;;;;;27.73;34.89;94938.88;5022951;28;20045;-72
2021/09/13 10:30:13;;;;;;;11.50;6.85;;;;;;;27.78;34.62;94936.72;5020325;28;20071;-73
2021/09/13 10:32:41;;;;;;;8.40;6.20;;;;;;;27.81;34.61;94935.66;5027420;28;20036;-74
2021/09/13 10:35:07;;;;;;;11.23;6.13;;;;;;;27.90;34.64;94926.91;5028835;28;20028;-74
2021/09/13 10:37:40;;;;;;;11.90;6.35;;;;;;;27.93;34.63;94925.84;5028542;28;20091;-76
2021/09/13 10:40:10;;;;;;;12.60;6.32;;;;;;;28.01;34.22;94929.38;5028094;28;20171;-71
2021/09/13 10:42:38;;;;;;;8.55;5.85;;;;;;;28.04;34.42;94931.03;5018454;28;20535;-77
2021/09/13 10:45:08;;;;;;;8.07;5.55;;;;;;;28.03;34.81;94932.31;5033646;28;20416;-73
2021/09/13 10:47:34;;;;;;;12.02;5.88;;;;;;;28.08;34.54;94925.19;5029297;28;20059;-74
2021/09/13 10:50:35;;;;;;;10.20;6.15;;;;;;;28.15;34.40;94930.75;5030284;28;20441;-74
2021/09/13 10:53:02;;;;;;;9.73;5.70;;;;;;;28.15;33.92;94914.25;5007573;28;20033;-76
2021/09/13 10:55:38;;;;;;;9.88;5.75;;;;;;;28.21;33.61;94928.56;5028143;28;20030;-74
2021/09/13 10:58:09;;;;;;;8.93;5.95;;;;;;;28.19;34.72;94925.66;5022036;28;20072;-75
2021/09/13 11:00:41;;;;;;;9.65;5.70;;;;;;;28.27;34.33;94915.41;5028903;28;20030;-78
2021/09/13 11:03:22;;;;;;;9.45;5.75;;;;;;;28.17;34.92;94906.22;5029088;28;20103;-75
2021/09/13 11:06:06;;;;;;;10.88;6.05;;;;;;;28.30;34.88;94914.31;5027490;28;20029;-77
2021/09/13 11:08:32;;;;;;;8.88;5.18;;;;;;;28.35;35.08;94910.69;5023819;28;20119;-78
2021/09/13 11:10:57;;;;;;;7.85;5.35;;;;;;;28.39;34.14;94922.06;5029033;28;20100;-77
2021/09/13 11:13:23;;;;;;;8.40;5.03;;;;;;;28.42;33.86;94898.97;5017972;28;20111;-80
2021/09/13 11:18:39;;;;;;;9.73;5.45;;;;;;;28.41;33.48;94892.00;4953880;28;20054;-77
2021/09/13 11:21:23;;;;;;;10.13;5.10;;;;;;;28.52;33.45;94902.66;4968143;28;20038;-80
2021/09/13 11:23:51;;;;;;;8.38;5.10;;;;;;;28.60;32.86;94892.44;4966764;28;20564;-80
2021/09/13 11:26:17;;;;;;;10.05;5.00;;;;;;;28.68;33.20;94898.69;4950085;28;20054;-78
2021/09/13 11:28:56;;;;;;;14.60;5.28;;;;;;;28.65;33.08;94883.28;4976902;28;20042;-81
2021/09/13 11:31:28;;;;;;;7.18;4.90;;;;;;;28.69;32.52;94889.19;4971808;28;20050;-79
2021/09/13 11:33:55;;;;;;;11.52;5.30;;;;;;;28.71;32.55;94884.59;4969813;28;20051;-80